Time;durP1;ratioP1;P1;durP2;ratioP2;P2;SDS_P1;SDS_P2;PMS_P1;PMS_P2;Temp;Humidity;BMP_temperature;BMP_pressure;BME280_temperature;BME280_humidity;BME280_pressure;Samples;Min_cycle;Max_cycle;Signal;HPM_P1;HPM_P2
2023/11/01 00:03:39;;;;;;;1999.90;999.90;;;;;;;16.72;85.83;100299.84;10542473;28;20131;-62
2023/11/01 00:08:41;;;;;;;1999.90;999.90;;;;;;;16.67;86.13;100299.41;10542491;28;20054;-62
2023/11/01 00:13:44;;;;;;;1999.90;999.90;;;;;;;16.87;86.35;100302.09;10541908;28;20056;-61
2023/11/01 00:18:46;;;;;;;1999.90;999.90;;;;;;;16.51;86.35;100292.06;10524182;28;20075;-61
2023/11/01 00:23:49;;;;;;;1999.90;999.90;;;;;;;16.85;87.89;100296.13;10541311;28;20492;-62
2023/11/01 00:28:52;;;;;;;1999.90;999.90;;;;;;;16.58;88.08;100283.59;10540681;28;20396;-62
2023/11/01 00:33:54;;;;;;;1999.90;999.90;;;;;;;16.92;84.27;100281.34;10540590;28;20531;-62
2023/11/01 00:38:57;;;;;;;1999.90;999.90;;;;;;;16.60;88.07;100276.34;10540229;28;20447;-62
2023/11/01 00:43:59;;;;;;;1999.90;999.90;;;;;;;16.85;86.57;100267.03;10540775;28;20052;-61
2023/11/01 00:49:01;;;;;;;1999.90;999.90;;;;;;;16.52;87.63;100263.81;10539908;28;20155;-61
2023/11/01 00:54:05;;;;;;;1999.90;999.90;;;;;;;16.39;85.84;100253.56;10539553;28;20060;-61
2023/11/01 00:59:07;;;;;;;1999.90;999.90;;;;;;;16.57;88.90;100244.91;10539693;28;20425;-61
2023/11/01 01:04:10;;;;;;;1999.90;999.90;;;;;;;16.11;89.13;100258.66;10540031;28;20071;-62
2023/11/01 01:09:12;;;;;;;1999.90;999.90;;;;;;;16.21;88.58;100249.94;10391529;22;20115;-63
2023/11/01 01:14:16;;;;;;;1999.90;999.90;;;;;;;16.32;88.90;100237.44;10368331;28;20050;-63
2023/11/01 01:19:19;;;;;;;1999.90;999.90;;;;;;;16.25;89.68;100228.38;10351266;28;20099;-63
2023/11/01 01:24:21;;;;;;;1999.90;999.90;;;;;;;16.60;87.20;100221.69;10368430;28;20518;-63
2023/11/01 01:29:23;;;;;;;1999.90;999.90;;;;;;;15.85;90.63;100229.28;10368659;28;20048;-63
2023/11/01 01:34:26;;;;;;;1999.90;999.90;;;;;;;16.07;89.54;100219.47;10368620;28;20129;-63
2023/11/01 01:39:28;;;;;;;1999.90;999.90;;;;;;;16.58;87.91;100212.25;10368487;28;20045;-63
2023/11/01 01:44:30;;;;;;;1999.90;999.90;;;;;;;15.85;89.90;100215.25;10368414;28;20060;-63
2023/11/01 01:49:33;;;;;;;1999.90;999.90;;;;;;;16.32;89.33;100205.72;10368631;28;20046;-63
2023/11/01 01:54:47;;;;;;;1999.90;999.90;;;;;;;16.47;88.68;100198.19;10367619;28;20050;-63
2023/11/01 01:59:50;;;;;;;1999.90;999.90;;;;;;;16.04;86.90;100180.97;10350726;28;20048;-63
2023/11/01 02:04:53;;;;;;;1999.90;999.90;;;;;;;16.58;86.37;100178.72;10350395;28;20054;-63
2023/11/01 02:09:55;;;;;;;1999.90;999.90;;;;;;;16.20;89.77;100176.94;10349763;28;20050;-63
2023/11/01 02:14:59;;;;;;;1999.90;999.90;;;;;;;16.05;90.87;100172.06;10350375;28;20125;-63
2023/11/01 02:20:02;;;;;;;1999.90;999.90;;;;;;;16.19;89.39;100170.84;10367505;28;20077;-63
2023/11/01 02:25:05;;;;;;;1999.90;999.90;;;;;;;16.33;87.44;100159.00;10369462;28;20471;-63
2023/11/01 02:30:15;;;;;;;1999.90;999.90;;;;;;;16.32;87.74;100154.69;10374024;28;20488;-63
2023/11/01 02:35:19;;;;;;;1999.90;999.90;;;;;;;16.47;87.87;100142.69;10343093;28;20091;-63
2023/11/01 02:40:21;;;;;;;1999.90;999.90;;;;;;;16.19;90.03;100128.59;10355955;28;20289;-63
2023/11/01 02:45:24;;;;;;;1999.90;999.90;;;;;;;16.37;87.65;100127.84;10373753;28;20054;-63
2023/11/01 02:50:26;;;;;;;1999.90;999.90;;;;;;;16.38;90.83;100122.44;10356175;28;20124;-63
2023/11/01 02:55:29;;;;;;;1999.90;999.90;;;;;;;16.32;90.73;100115.91;10356136;28;20050;-63
2023/11/01 03:00:31;;;;;;;1999.90;999.90;;;;;;;16.40;88.53;100107.25;10355432;28;20405;-64
2023/11/01 03:05:34;;;;;;;1999.90;999.90;;;;;;;15.93;90.01;100094.00;10373016;28;20062;-63
2023/11/01 03:10:36;;;;;;;1999.90;999.90;;;;;;;16.44;91.66;100091.94;10372680;28;20046;-63
2023/11/01 03:15:38;;;;;;;1999.90;999.90;;;;;;;16.13;90.73;100092.16;10373057;28;20050;-63
2023/11/01 03:20:41;;;;;;;1999.90;999.90;;;;;;;15.64;94.50;100078.97;10355404;28;20050;-63
2023/11/01 03:25:43;;;;;;;1999.90;999.90;;;;;;;16.14;92.88;100070.91;10372497;28;20073;-63
2023/11/01 03:30:46;;;;;;;1999.90;999.90;;;;;;;15.98;90.79;100068.00;10371668;28;20486;-63
2023/11/01 03:35:48;;;;;;;1999.90;999.90;;;;;;;15.98;90.80;100066.19;10371582;28;20084;-63
2023/11/01 03:40:50;;;;;;;1999.90;999.90;;;;;;;15.84;90.92;100068.44;10372020;28;20041;-63
2023/11/01 03:45:53;;;;;;;1999.90;999.90;;;;;;;16.23;91.15;100061.28;10371424;28;20054;-63
2023/11/01 03:50:55;;;;;;;1999.90;999.90;;;;;;;16.07;89.19;100051.31;10371817;28;20049;-63
2023/11/01 03:55:58;;;;;;;1999.90;999.90;;;;;;;16.08;92.22;100044.22;10354331;28;20151;-63
2023/11/01 04:01:00;;;;;;;1999.90;999.90;;;;;;;16.65;91.00;100033.63;10371423;28;20046;-63
2023/11/01 04:06:03;;;;;;;1999.90;999.90;;;;;;;15.79;96.83;100039.81;10353732;28;20099;-63
2023/11/01 04:11:05;;;;;;;1999.90;999.90;;;;;;;16.01;93.46;100033.41;10370395;28;20041;-63
2023/11/01 04:16:08;;;;;;;1999.90;999.90;;;;;;;16.31;92.61;100021.78;10370954;28;20057;-63
2023/11/01 04:21:10;;;;;;;1999.90;999.90;;;;;;;16.00;94.55;100021.16;10370710;28;20042;-63
2023/11/01 04:26:13;;;;;;;1999.90;999.90;;;;;;;15.72;96.99;100025.50;10370616;28;20132;-63
2023/11/01 04:31:16;;;;;;;1999.90;999.90;;;;;;;16.22;95.05;100019.16;10353123;28;20050;-63
2023/11/01 04:36:25;;;;;;;1999.90;999.90;;;;;;;16.56;93.06;100005.41;10369778;28;20046;-63
2023/11/01 04:41:27;;;;;;;1999.90;999.90;;;;;;;15.63;96.11;100016.59;10353079;28;20491;-63
2023/11/01 04:46:30;;;;;;;1999.90;999.90;;;;;;;16.22;93.85;100001.50;10369066;28;20383;-63
2023/11/01 04:51:33;;;;;;;1999.90;999.90;;;;;;;16.31;91.88;99992.72;10369138;28;20056;-63
2023/11/01 04:56:35;;;;;;;1999.90;999.90;;;;;;;16.97;86.53;99995.34;10352320;28;20071;-63
2023/11/01 05:01:37;;;;;;;1999.90;999.90;;;;;;;16.35;95.93;99987.97;10369762;28;20057;-63
2023/11/01 05:06:40;;;;;;;1999.90;999.90;;;;;;;16.48;95.33;99988.47;10335841;28;20077;-63
2023/11/01 05:11:43;;;;;;;1999.90;999.90;;;;;;;16.79;91.12;99982.06;10368585;28;20561;-63
2023/11/01 05:16:46;;;;;;;1999.90;999.90;;;;;;;16.47;92.84;99980.69;10351828;28;20106;-63
2023/11/01 05:21:49;;;;;;;1999.90;999.90;;;;;;;16.62;91.26;99976.59;10351834;28;20074;-63
2023/11/01 05:26:52;;;;;;;1999.90;999.90;;;;;;;16.90;93.70;99974.78;10368969;28;20053;-63
2023/11/01 05:31:55;;;;;;;1999.90;999.90;;;;;;;17.15;91.23;99963.66;10369144;28;20050;-64
2023/11/01 05:36:58;;;;;;;1999.90;999.90;;;;;;;16.68;93.36;99952.22;10368005;28;20406;-63
2023/11/01 05:42:00;;;;;;;1999.90;999.90;;;;;;;16.10;96.89;99955.94;10367893;28;20052;-64
2023/11/01 05:47:03;;;;;;;1999.90;999.90;;;;;;;16.90;91.96;99953.66;10368069;28;20410;-64
2023/11/01 05:52:06;;;;;;;1999.90;999.90;;;;;;;16.96;94.06;99954.03;10368159;28;20042;-63
2023/11/01 05:57:09;;;;;;;1999.90;999.90;;;;;;;16.80;91.65;99950.19;10368131;28;20060;-63
2023/11/01 06:02:12;;;;;;;1999.90;999.90;;;;;;;16.50;93.28;99954.81;10373248;28;20454;-63
2023/11/01 06:07:14;;;;;;;1999.90;999.90;;;;;;;16.81;93.88;99953.66;10374817;28;20058;-63
2023/11/01 06:12:17;;;;;;;1999.90;999.90;;;;;;;16.87;92.71;99963.69;10340726;28;20509;-63
2023/11/01 06:17:20;;;;;;;1999.90;999.90;;;;;;;16.76;92.28;99961.22;10374097;28;20402;-63
2023/11/01 06:22:22;;;;;;;1999.90;999.90;;;;;;;16.72;93.87;99958.88;10374723;28;20056;-63
2023/11/01 06:27:25;;;;;;;1999.90;999.90;;;;;;;16.91;94.59;99962.41;10373785;28;20452;-64
2023/11/01 06:32:27;;;;;;;1999.90;999.90;;;;;;;16.89;94.06;99973.16;10374158;28;20061;-64
2023/11/01 06:37:29;;;;;;;1999.90;999.90;;;;;;;17.18;92.77;99968.59;10374629;28;20070;-63
2023/11/01 06:42:32;;;;;;;1999.90;999.90;;;;;;;17.17;94.92;99965.16;10374022;28;20050;-64
2023/11/01 06:47:34;;;;;;;1999.90;999.90;;;;;;;16.93;92.16;99968.38;10373227;28;20501;-65
2023/11/01 06:52:39;;;;;;;1999.90;999.90;;;;;;;17.49;89.65;99977.00;10372910;28;20128;-63
2023/11/01 06:57:42;;;;;;;1999.90;999.90;;;;;;;16.67;91.16;99965.59;10373997;28;20077;-65
2023/11/01 07:02:44;;;;;;;1999.90;999.90;;;;;;;17.32;91.35;99967.28;10373364;28;20054;-66
2023/11/01 07:07:46;;;;;;;1999.90;999.90;;;;;;;16.65;96.29;99978.13;10372353;28;20571;-65
2023/11/01 07:12:49;;;;;;;1999.90;999.90;;;;;;;17.31;91.25;99982.28;10354525;28;20060;-63
2023/11/01 07:17:51;;;;;;;1999.90;999.90;;;;;;;16.87;95.83;99976.91;10372860;28;20064;-65
2023/11/01 07:22:54;;;;;;;1999.90;999.90;;;;;;;17.14;93.41;99972.56;10372051;28;20577;-63
2023/11/01 07:27:56;;;;;;;1999.90;999.90;;;;;;;17.35;91.83;99967.78;10371880;28;20054;-65
2023/11/01 07:32:58;;;;;;;1999.90;999.90;;;;;;;17.19;94.47;99979.03;10372278;28;20061;-63
2023/11/01 07:38:01;;;;;;;1999.90;999.90;;;;;;;17.48;89.36;99977.16;10372193;28;20050;-63
2023/11/01 07:43:03;;;;;;;1999.90;999.90;;;;;;;17.78;88.94;99968.75;10354001;28;20082;-63
2023/11/01 07:48:05;;;;;;;1999.90;999.90;;;;;;;17.67;89.55;99979.63;10371713;28;20050;-63
2023/11/01 07:53:08;;;;;;;1999.90;999.90;;;;;;;17.30;91.22;99972.72;10372090;28;20117;-63
2023/11/01 07:58:10;;;;;;;1999.90;999.90;;;;;;;17.40;92.88;99978.75;10354120;28;20050;-63
2023/11/01 08:03:13;;;;;;;1999.90;999.90;;;;;;;17.24;94.47;99979.41;10370748;28;20164;-63
2023/11/01 08:08:15;;;;;;;1999.90;999.90;;;;;;;17.81;89.23;99980.88;10370985;28;20062;-63
2023/11/01 08:13:18;;;;;;;1999.90;999.90;;;;;;;17.36;91.19;99977.38;10370957;28;20053;-63
2023/11/01 08:18:20;;;;;;;1999.90;999.90;;;;;;;17.34;91.56;99973.22;10352958;28;20432;-63
2023/11/01 08:23:23;;;;;;;1999.90;999.90;;;;;;;17.26;92.51;99963.41;10353342;28;20049;-65
2023/11/01 08:28:25;;;;;;;1999.90;999.90;;;;;;;17.27;91.49;99965.91;10369970;28;20451;-65
2023/11/01 08:33:28;;;;;;;1999.90;999.90;;;;;;;17.73;91.48;99954.34;10369751;28;20405;-65
2023/11/01 08:38:31;;;;;;;1999.90;999.90;;;;;;;17.06;92.48;99955.63;10370307;28;20054;-65
2023/11/01 08:43:34;;;;;;;1999.90;999.90;;;;;;;17.29;93.62;99959.63;10352285;28;20452;-66
2023/11/01 08:48:36;;;;;;;1999.90;999.90;;;;;;;17.65;91.39;99952.47;10369454;28;20054;-63
2023/11/01 08:53:39;;;;;;;1999.90;999.90;;;;;;;17.73;90.56;99957.00;10370307;28;20050;-63
2023/11/01 08:58:41;;;;;;;1999.90;999.90;;;;;;;17.60;89.78;99952.94;10369657;28;20118;-63
2023/11/01 09:03:44;;;;;;;1999.90;999.90;;;;;;;17.81;88.23;99955.22;10368915;28;20557;-63
2023/11/01 09:08:46;;;;;;;1999.90;999.90;;;;;;;17.76;91.09;99957.50;10351666;28;20081;-63
2023/11/01 09:13:49;;;;;;;1999.90;999.90;;;;;;;18.08;86.80;99949.97;10369064;28;20049;-63
2023/11/01 09:18:52;;;;;;;1999.90;999.90;;;;;;;17.22;89.98;99943.53;10369043;28;20046;-63
2023/11/01 09:23:54;;;;;;;1999.90;999.90;;;;;;;17.63;86.69;99952.63;10368991;28;20129;-63
2023/11/01 09:28:56;;;;;;;1999.90;999.90;;;;;;;17.71;88.86;99938.63;10368832;28;20050;-63
2023/11/01 09:33:59;;;;;;;1999.90;999.90;;;;;;;17.73;88.21;99943.75;10371886;28;20053;-63
2023/11/01 09:39:03;;;;;;;1999.90;999.90;;;;;;;18.09;87.87;99941.00;10364262;28;20057;-62
2023/11/01 09:44:07;;;;;;;1999.90;999.90;;;;;;;19.41;83.49;99939.56;10381939;28;20057;-63
2023/11/01 09:49:10;;;;;;;1999.90;999.90;;;;;;;18.99;79.18;99929.91;10381843;28;20053;-63
2023/11/01 09:54:13;;;;;;;1999.90;999.90;;;;;;;18.70;82.58;99931.97;10364223;28;20045;-63
2023/11/01 09:59:16;;;;;;;1999.90;999.90;;;;;;;19.01;81.99;99926.09;10381617;28;20053;-65
2023/11/01 10:04:19;;;;;;;1999.90;999.90;;;;;;;18.19;80.74;99928.50;10381487;28;20056;-65
2023/11/01 10:09:21;;;;;;;1999.90;999.90;;;;;;;18.50;82.42;99904.09;10363400;28;20060;-65
2023/11/01 10:14:33;;;;;;;1999.90;999.90;;;;;;;18.18;84.38;99906.47;10381167;28;20048;-65
2023/11/01 10:19:35;;;;;;;1999.90;999.90;;;;;;;18.75;81.04;99900.50;10380534;28;20508;-65
2023/11/01 10:24:38;;;;;;;1999.90;999.90;;;;;;;17.93;84.87;99891.44;10381407;28;20076;-65
2023/11/01 10:29:44;;;;;;;1999.90;999.90;;;;;;;18.80;82.76;99889.41;10363590;28;20073;-63
2023/11/01 10:34:47;;;;;;;1999.90;999.90;;;;;;;18.55;81.31;99884.06;10380109;28;20562;-63
2023/11/01 10:39:49;;;;;;;1999.90;999.90;;;;;;;18.33;82.06;99872.25;10380646;28;20045;-65
2023/11/01 10:44:52;;;;;;;1999.90;999.90;;;;;;;17.94;82.89;99874.59;10362091;28;20048;-65
2023/11/01 10:49:55;;;;;;;1999.90;999.90;;;;;;;18.58;80.32;99861.72;10373725;28;20049;-65
2023/11/01 10:54:59;;;;;;;1999.90;999.90;;;;;;;18.61;79.48;99853.44;10356158;28;20046;-65
2023/11/01 11:00:16;;;;;;;1999.90;999.90;;;;;;;19.21;78.67;99851.50;10356140;28;20058;-65
2023/11/01 11:05:29;;;;;;;1999.90;999.90;;;;;;;18.96;78.86;99830.28;10373069;28;20057;-66
2023/11/01 11:10:33;;;;;;;1999.90;999.90;;;;;;;18.82;76.94;99821.13;10373013;28;20440;-65
2023/11/01 11:15:51;;;;;;;1999.90;999.90;;;;;;;19.31;77.63;99809.69;10372943;28;20132;-63
2023/11/01 11:20:58;;;;;;;1999.90;999.90;;;;;;;19.10;75.84;99800.44;10372783;28;20046;-63
2023/11/01 11:26:02;;;;;;;1999.90;999.90;;;;;;;20.23;74.45;99791.41;10372011;28;20111;-63
2023/11/01 11:31:12;;;;;;;1999.90;999.90;;;;;;;20.09;72.90;99781.56;10372359;28;20046;-63
2023/11/01 11:36:25;;;;;;;1999.90;999.90;;;;;;;20.47;72.14;99773.66;10338691;28;20061;-63
2023/11/01 11:41:37;;;;;;;1999.90;999.90;;;;;;;19.68;75.08;99758.63;10354254;28;20557;-65
2023/11/01 11:46:54;;;;;;;1999.90;999.90;;;;;;;19.89;71.73;99761.72;10371852;28;20506;-65
2023/11/01 11:51:59;;;;;;;1999.90;999.90;;;;;;;20.09;71.22;99754.13;10372359;28;20046;-65
2023/11/01 11:57:07;;;;;;;1999.90;999.90;;;;;;;19.62;72.67;99732.78;10354294;28;20102;-66
2023/11/01 12:02:12;;;;;;;1999.90;999.90;;;;;;;19.89;70.59;99740.47;10338278;28;20080;-65
2023/11/01 12:07:21;;;;;;;1999.90;999.90;;;;;;;19.51;68.90;99733.16;10353811;28;20054;-63
2023/11/01 12:12:24;;;;;;;1999.90;999.90;;;;;;;19.51;72.06;99725.19;10370430;28;20061;-66
2023/11/01 12:17:27;;;;;;;1999.90;999.90;;;;;;;18.92;70.28;99718.38;10371037;28;20058;-65
2023/11/01 12:22:36;;;;;;;1999.90;999.90;;;;;;;19.99;70.78;99710.03;10353105;28;20387;-65
2023/11/01 12:27:40;;;;;;;1999.90;999.90;;;;;;;19.62;69.17;99700.91;10337156;28;20453;-65
2023/11/01 12:32:43;;;;;;;1999.90;999.90;;;;;;;19.69;69.63;99698.41;10352676;28;20507;-63
2023/11/01 12:37:45;;;;;;;1999.90;999.90;;;;;;;19.41;69.91;99693.53;10370398;28;20133;-63
2023/11/01 12:42:49;;;;;;;1999.90;999.90;;;;;;;20.21;69.85;99671.19;10370233;28;20050;-63
2023/11/01 12:47:53;;;;;;;1999.90;999.90;;;;;;;19.66;68.59;99667.69;10370113;28;20056;-65
2023/11/01 12:52:56;;;;;;;1999.90;999.90;;;;;;;19.00;70.70;99643.28;10369196;28;20410;-63
2023/11/01 12:57:59;;;;;;;1999.90;999.90;;;;;;;19.49;70.37;99644.91;10352376;28;20045;-63
2023/11/01 13:03:02;;;;;;;1999.90;999.90;;;;;;;18.41;71.38;99632.09;10369553;28;20091;-63
2023/11/01 13:08:05;;;;;;;1999.90;999.90;;;;;;;19.02;68.72;99624.56;10368118;28;20520;-63
2023/11/01 13:13:07;;;;;;;1999.90;999.90;;;;;;;19.06;69.54;99616.09;10351771;28;20402;-63
2023/11/01 13:18:10;;;;;;;1999.90;999.90;;;;;;;18.82;69.02;99601.03;10352359;28;20098;-63
2023/11/01 13:23:12;;;;;;;1999.90;999.90;;;;;;;19.53;67.37;99593.09;10502374;23;20059;-64
2023/11/01 13:28:15;;;;;;;1999.90;999.90;;;;;;;19.00;69.80;99581.47;10540209;28;20052;-64
2023/11/01 13:33:17;;;;;;;1999.90;999.90;;;;;;;19.15;70.65;99570.94;10539970;28;20043;-65
2023/11/01 13:38:20;;;;;;;1999.90;999.90;;;;;;;18.75;71.09;99558.47;10539919;28;20110;-65
2023/11/01 13:43:22;;;;;;;1999.90;999.90;;;;;;;19.12;68.94;99562.31;10539182;28;20051;-65
2023/11/01 13:48:24;;;;;;;1999.90;999.90;;;;;;;19.48;70.38;99543.22;10522394;28;20127;-64
2023/11/01 13:53:27;;;;;;;1999.90;999.90;;;;;;;18.85;69.73;99534.44;10538959;28;20394;-64
2023/11/01 13:58:30;;;;;;;1999.90;999.90;;;;;;;19.83;68.66;99535.66;10539578;28;20063;-64
2023/11/01 14:03:36;;;;;;;1999.90;999.90;;;;;;;18.62;70.84;99533.50;10539486;28;20078;-64
2023/11/01 14:08:38;;;;;;;1999.90;999.90;;;;;;;19.36;69.45;99526.03;10539452;28;20048;-64
2023/11/01 14:13:41;;;;;;;1999.90;999.90;;;;;;;19.53;70.66;99513.47;10539220;28;20123;-64
2023/11/01 14:18:44;;;;;;;1999.90;999.90;;;;;;;19.59;68.93;99509.31;10505217;28;20128;-65
2023/11/01 14:23:46;;;;;;;1999.90;999.90;;;;;;;19.76;68.17;99502.06;10511511;28;20052;-64
2023/11/01 14:28:49;;;;;;;1999.90;999.90;;;;;;;19.14;70.20;99517.06;10546868;28;20048;-64
2023/11/01 14:33:51;;;;;;;1999.90;999.90;;;;;;;19.27;68.66;99505.88;10545947;28;20400;-66
2023/11/01 14:38:54;;;;;;;1999.90;999.90;;;;;;;18.67;70.24;99491.41;10545840;28;20078;-64
2023/11/01 14:43:56;;;;;;;1999.90;999.90;;;;;;;18.61;69.46;99490.28;10546822;28;20051;-64
2023/11/01 14:49:01;;;;;;;1999.90;999.90;;;;;;;18.96;71.92;99489.97;10528544;28;20052;-64
2023/11/01 14:54:04;;;;;;;1999.90;999.90;;;;;;;18.57;70.00;99479.19;10528545;28;20131;-64
2023/11/01 14:59:07;;;;;;;1999.90;999.90;;;;;;;18.61;72.46;99470.88;10544990;28;20055;-64
2023/11/01 15:04:09;;;;;;;1999.90;999.90;;;;;;;18.85;69.78;99470.81;10544834;28;20040;-64
2023/11/01 15:09:12;;;;;;;1999.90;999.90;;;;;;;18.87;70.72;99473.28;10545284;28;20044;-64
2023/11/01 15:14:19;;;;;;;1999.90;999.90;;;;;;;18.49;71.49;99468.63;10544945;28;20377;-64
2023/11/01 15:19:21;;;;;;;1999.90;999.90;;;;;;;18.77;70.34;99473.47;10544959;28;20048;-64
2023/11/01 15:24:27;;;;;;;1999.90;999.90;;;;;;;18.29;70.71;99459.41;10526535;28;20470;-64
2023/11/01 15:29:29;;;;;;;1999.90;999.90;;;;;;;18.01;71.05;99459.84;10527058;28;20132;-64
2023/11/01 15:34:31;;;;;;;1999.90;999.90;;;;;;;18.06;70.52;99459.34;10542707;28;20549;-64
2023/11/01 15:39:34;;;;;;;1999.90;999.90;;;;;;;17.97;70.86;99469.09;10544149;28;20127;-65
2023/11/01 15:44:36;;;;;;;1999.90;999.90;;;;;;;18.35;71.34;99469.34;10543962;28;20044;-64
2023/11/01 15:49:39;;;;;;;1999.90;999.90;;;;;;;17.62;72.52;99463.16;10543694;28;20055;-64
2023/11/01 15:54:43;;;;;;;1999.90;999.90;;;;;;;17.90;71.13;99468.94;10525152;28;20504;-64
2023/11/01 15:59:45;;;;;;;1999.90;999.90;;;;;;;17.73;71.41;99440.81;10543292;28;20101;-64
2023/11/01 16:04:48;;;;;;;1999.90;999.90;;;;;;;17.77;68.32;99442.13;10543023;28;20044;-64
2023/11/01 16:09:51;;;;;;;1999.90;999.90;;;;;;;17.60;69.04;99450.09;10542799;28;20048;-64
2023/11/01 16:14:54;;;;;;;1999.90;999.90;;;;;;;18.12;70.65;99448.88;10541903;28;20048;-64
2023/11/01 16:19:57;;;;;;;1999.90;999.90;;;;;;;17.66;71.11;99434.53;10523570;28;20048;-64
2023/11/01 16:25:02;;;;;;;1999.90;999.90;;;;;;;17.45;70.29;99446.47;10542241;28;20044;-64
2023/11/01 16:30:05;;;;;;;1999.90;999.90;;;;;;;17.33;70.88;99427.47;10542034;28;20052;-64
2023/11/01 16:35:08;;;;;;;1999.90;999.90;;;;;;;17.43;70.76;99444.00;10541774;28;20055;-64
2023/11/01 16:40:12;;;;;;;1999.90;999.90;;;;;;;17.60;70.38;99433.38;10540979;28;20553;-64
2023/11/01 16:45:14;;;;;;;1999.90;999.90;;;;;;;17.40;71.61;99433.72;10523489;28;20040;-64
2023/11/01 16:50:17;;;;;;;1999.90;999.90;;;;;;;17.55;72.63;99452.41;10541320;28;20071;-64
2023/11/01 16:55:19;;;;;;;1999.90;999.90;;;;;;;16.99;72.54;99454.84;10541030;28;20127;-64
2023/11/01 17:00:23;;;;;;;1999.90;999.90;;;;;;;17.56;70.73;99466.47;10522356;28;20051;-65
2023/11/01 17:05:25;;;;;;;1999.90;999.90;;;;;;;17.14;74.62;99465.59;10540865;28;20126;-65
2023/11/01 17:10:28;;;;;;;1999.90;999.90;;;;;;;17.72;70.73;99450.59;10540681;28;20135;-65
2023/11/01 17:15:30;;;;;;;1999.90;999.90;;;;;;;16.95;78.72;99464.09;10541025;28;20127;-65
2023/11/01 17:20:32;;;;;;;1999.90;999.90;;;;;;;17.38;79.17;99453.38;10539687;28;20055;-64
2023/11/01 17:25:45;;;;;;;1999.90;999.90;;;;;;;17.37;80.60;99468.44;10522291;28;20046;-65
2023/11/01 17:30:48;;;;;;;1999.90;999.90;;;;;;;16.86;81.23;99463.25;10540502;28;20056;-65
2023/11/01 17:35:51;;;;;;;1999.90;999.90;;;;;;;16.63;83.18;99462.97;10521371;28;20077;-65
2023/11/01 17:40:56;;;;;;;1999.90;999.90;;;;;;;16.08;85.88;99472.09;10539918;28;20072;-65
2023/11/01 17:45:58;;;;;;;1999.90;999.90;;;;;;;16.01;84.12;99460.53;10522282;28;20131;-64
2023/11/01 17:51:00;;;;;;;1999.90;999.90;;;;;;;16.52;83.14;99471.19;10538965;28;20416;-65
2023/11/01 17:56:05;;;;;;;1999.90;999.90;;;;;;;16.52;82.95;99469.38;10542847;28;20051;-65
2023/11/01 18:01:07;;;;;;;1999.90;999.90;;;;;;;17.01;79.22;99481.97;10530499;28;20135;-65
2023/11/01 18:06:12;;;;;;;1999.90;999.90;;;;;;;16.77;82.29;99482.66;10547856;28;20097;-65
2023/11/01 18:11:16;;;;;;;1999.90;999.90;;;;;;;16.12;81.83;99465.56;10529732;28;20048;-65
2023/11/01 18:16:28;;;;;;;1999.90;999.90;;;;;;;15.92;85.79;99464.09;10529440;28;20062;-65
2023/11/01 18:21:33;;;;;;;1999.90;999.90;;;;;;;16.48;81.96;99446.91;10546602;28;20504;-65
2023/11/01 18:26:36;;;;;;;1999.90;999.90;;;;;;;16.01;83.07;99447.31;10528800;28;20044;-65
2023/11/01 18:31:40;;;;;;;1999.90;999.90;;;;;;;15.79;84.68;99452.13;10546689;28;20040;-65
2023/11/01 18:36:45;;;;;;;1999.90;999.90;;;;;;;16.14;83.55;99441.63;10528741;28;20080;-65
2023/11/01 18:41:48;;;;;;;1999.90;999.90;;;;;;;16.35;80.58;99436.75;10528528;28;20044;-65
2023/11/01 18:46:51;;;;;;;1999.90;999.90;;;;;;;15.98;83.82;99429.16;10528174;28;20492;-65
2023/11/01 18:51:54;;;;;;;1999.90;999.90;;;;;;;15.74;84.20;99422.72;10545930;28;20044;-65
2023/11/01 18:56:57;;;;;;;1999.90;999.90;;;;;;;15.69;83.12;99409.16;10545832;28;20044;-65
2023/11/01 19:02:00;;;;;;;1999.90;999.90;;;;;;;15.32;88.50;99412.03;10545691;28;20051;-65
2023/11/01 19:07:06;;;;;;;1999.90;999.90;;;;;;;15.50;83.28;99394.38;10525805;28;20410;-65
2023/11/01 19:12:12;;;;;;;1999.90;999.90;;;;;;;15.75;84.19;99411.22;10544553;28;20105;-65
2023/11/01 19:17:15;;;;;;;1999.90;999.90;;;;;;;15.98;83.70;99418.59;10527194;28;20052;-66
2023/11/01 19:22:17;;;;;;;1999.90;999.90;;;;;;;15.73;83.17;99425.50;10544299;28;20404;-65
2023/11/01 19:27:20;;;;;;;1999.90;999.90;;;;;;;15.85;83.46;99432.19;10544713;28;20080;-65
2023/11/01 19:32:25;;;;;;;1999.90;999.90;;;;;;;15.46;81.72;99432.56;10544434;28;20094;-65
2023/11/01 19:37:27;;;;;;;1999.90;999.90;;;;;;;15.47;82.16;99439.50;10543651;28;20086;-65
2023/11/01 19:42:30;;;;;;;1999.90;999.90;;;;;;;16.23;80.35;99432.75;10525413;28;20407;-65
2023/11/01 19:47:32;;;;;;;1999.90;999.90;;;;;;;15.49;83.16;99426.16;10543658;28;20481;-65
2023/11/01 19:52:34;;;;;;;1999.90;999.90;;;;;;;15.60;81.73;99426.75;10509005;28;20106;-65
2023/11/01 19:57:37;;;;;;;1999.90;999.90;;;;;;;15.39;83.39;99428.88;10543456;28;20047;-65
2023/11/01 20:02:39;;;;;;;1999.90;999.90;;;;;;;15.83;80.38;99417.53;10543143;28;20048;-65
2023/11/01 20:07:42;;;;;;;1999.90;999.90;;;;;;;15.79;80.49;99425.75;10543036;28;20048;-65
2023/11/01 20:12:44;;;;;;;1999.90;999.90;;;;;;;15.38;81.54;99422.78;10542739;28;20044;-65
2023/11/01 20:17:47;;;;;;;1999.90;999.90;;;;;;;15.47;83.24;99413.13;10524388;28;20048;-65
2023/11/01 20:22:51;;;;;;;1999.90;999.90;;;;;;;15.28;82.83;99415.94;10523768;28;20048;-65
2023/11/01 20:27:53;;;;;;;1999.90;999.90;;;;;;;15.16;83.39;99412.72;10542249;28;20127;-65
2023/11/01 20:32:56;;;;;;;1999.90;999.90;;;;;;;14.89;83.40;99418.88;10541306;28;20503;-65
2023/11/01 20:37:58;;;;;;;1999.90;999.90;;;;;;;15.41;82.21;99411.09;10541822;28;20101;-65
2023/11/01 20:43:01;;;;;;;1999.90;999.90;;;;;;;15.47;82.22;99407.03;10540950;28;20054;-65
2023/11/01 20:48:07;;;;;;;1999.90;999.90;;;;;;;15.45;81.38;99394.00;10522970;28;20484;-65
2023/11/01 20:53:09;;;;;;;1999.90;999.90;;;;;;;15.17;80.44;99372.19;10523704;28;20048;-65
2023/11/01 20:58:12;;;;;;;1999.90;999.90;;;;;;;15.47;80.83;99381.47;10540492;28;20043;-65
2023/11/01 21:03:14;;;;;;;1999.90;999.90;;;;;;;15.20;82.62;99366.63;10541589;28;20132;-65
2023/11/01 21:08:17;;;;;;;1999.90;999.90;;;;;;;15.13;82.44;99355.00;10540759;28;20471;-65
2023/11/01 21:13:19;;;;;;;1999.90;999.90;;;;;;;15.52;80.58;99346.75;10539894;28;20058;-65
2023/11/01 21:18:23;;;;;;;1999.90;999.90;;;;;;;15.08;81.37;99339.66;10540478;28;20071;-65
2023/11/01 21:23:25;;;;;;;1999.90;999.90;;;;;;;14.59;84.45;99329.53;10540141;28;20052;-65
2023/11/01 21:28:27;;;;;;;1999.90;999.90;;;;;;;14.90;82.62;99317.78;10540074;28;20051;-65
2023/11/01 21:33:30;;;;;;;1999.90;999.90;;;;;;;15.25;82.27;99308.97;10539500;28;20132;-65
2023/11/01 21:38:32;;;;;;;1999.90;999.90;;;;;;;15.14;81.33;99312.69;10522227;28;20051;-65
2023/11/01 21:43:35;;;;;;;1999.90;999.90;;;;;;;14.47;82.80;99322.78;10539821;28;20127;-65
2023/11/01 21:48:51;;;;;;;1999.90;999.90;;;;;;;14.75;83.78;99299.88;10539804;28;20048;-65
2023/11/01 21:53:54;;;;;;;1999.90;999.90;;;;;;;15.08;82.29;99296.66;10520962;28;20409;-65
2023/11/01 21:59:09;;;;;;;1999.90;999.90;;;;;;;14.89;82.53;99295.84;10538970;28;20517;-65
2023/11/01 22:04:17;;;;;;;1999.90;999.90;;;;;;;15.22;82.00;99296.91;10539341;28;20488;-65
2023/11/01 22:09:24;;;;;;;1999.90;999.90;;;;;;;14.68;83.53;99275.94;10522356;28;20463;-65